createdAt,value
2019-02-04T00:01:31.475Z,41.20
2019-02-04T00:03:59.395Z,35.17
2019-02-04T00:06:27.322Z,40.90
2019-02-04T00:08:55.248Z,40.03
2019-02-04T00:11:24.523Z,31.05
2019-02-04T00:13:52.491Z,39.50
2019-02-04T00:16:20.823Z,39.55
2019-02-04T00:18:48.744Z,38.75
2019-02-04T00:21:16.675Z,36.80
2019-02-04T00:23:44.604Z,39.13
2019-02-04T00:26:12.530Z,34.53
2019-02-04T00:28:40.451Z,36.50
2019-02-04T00:31:08.367Z,32.88
2019-02-04T00:33:36.668Z,32.75
2019-02-04T00:36:04.661Z,37.35
2019-02-04T00:38:32.816Z,32.28
2019-02-04T00:41:00.764Z,34.10
2019-02-04T00:43:28.932Z,42.88
2019-02-04T00:45:56.899Z,43.40
2019-02-04T00:48:24.859Z,39.95
2019-02-04T00:50:52.787Z,39.23
2019-02-04T00:53:20.709Z,37.90
2019-02-04T00:55:48.629Z,37.50
2019-02-04T00:58:16.800Z,34.83
2019-02-04T01:00:44.719Z,32.78
2019-02-04T01:03:12.751Z,47.25
2019-02-04T01:05:41.374Z,38.67
2019-02-04T01:08:09.303Z,43.05
2019-02-04T01:10:37.222Z,37.15
2019-02-04T01:13:05.153Z,40.12
2019-02-04T01:15:33.072Z,39.40
2019-02-04T01:18:01.235Z,36.17
2019-02-04T01:20:29.443Z,40.80
2019-02-04T01:22:57.637Z,42.60
2019-02-04T01:25:28.282Z,41.95
2019-02-04T01:27:57.676Z,39.20
2019-02-04T01:30:25.600Z,41.05
2019-02-04T01:32:53.547Z,51.88
2019-02-04T01:35:21.471Z,37.13
2019-02-04T01:37:49.419Z,38.78
2019-02-04T01:40:18.420Z,45.03
2019-02-04T01:42:46.344Z,47.95
2019-02-04T01:45:14.273Z,45.67
2019-02-04T01:47:42.191Z,42.93
2019-02-04T01:50:11.691Z,43.75
2019-02-04T01:52:40.283Z,49.80
2019-02-04T01:55:09.287Z,39.25
2019-02-04T01:57:37.202Z,38.38
2019-02-04T02:00:12.875Z,42.48
2019-02-04T02:02:40.791Z,36.00
2019-02-04T02:05:08.720Z,38.15
2019-02-04T02:07:36.643Z,43.70
2019-02-04T02:10:06.235Z,46.00
2019-02-04T02:12:34.170Z,40.28
2019-02-04T02:15:02.111Z,39.98
2019-02-04T02:17:30.632Z,42.35
2019-02-04T02:19:58.550Z,43.58
2019-02-04T02:22:26.479Z,42.35
2019-02-04T02:24:54.412Z,41.37
2019-02-04T02:27:22.344Z,40.88
2019-02-04T02:29:50.500Z,37.00
2019-02-04T02:32:18.436Z,45.63
2019-02-04T02:34:46.352Z,44.05
2019-02-04T02:37:14.660Z,43.10
2019-02-04T02:39:44.012Z,47.20
2019-02-04T02:42:11.933Z,41.28
2019-02-04T02:44:39.928Z,41.28
2019-02-04T02:47:07.866Z,37.80
2019-02-04T02:49:36.047Z,44.10
2019-02-04T02:52:04.200Z,41.58
2019-02-04T02:54:32.308Z,38.15
2019-02-04T02:57:00.463Z,42.43
2019-02-04T02:59:28.460Z,41.30
2019-02-04T03:01:56.391Z,35.60
2019-02-04T03:04:24.307Z,39.53
2019-02-04T03:06:52.462Z,49.27
2019-02-04T03:09:20.776Z,58.00
2019-02-04T03:11:48.688Z,62.43
2019-02-04T03:14:16.610Z,45.10
2019-02-04T03:16:44.531Z,42.45
2019-02-04T03:19:12.482Z,44.70
2019-02-04T03:21:40.403Z,39.45
2019-02-04T03:24:08.327Z,43.17
2019-02-04T03:26:36.260Z,40.58
2019-02-04T03:29:05.497Z,46.80
2019-02-04T03:31:33.765Z,42.03
2019-02-04T03:34:02.033Z,45.08
2019-02-04T03:36:29.959Z,41.00
2019-02-04T03:38:57.992Z,41.53
2019-02-04T03:41:26.195Z,40.17
2019-02-04T03:43:57.038Z,40.80
2019-02-04T03:46:23.743Z,37.98
2019-02-04T03:48:51.659Z,50.58
2019-02-04T03:51:19.593Z,41.85
2019-02-04T03:53:47.559Z,39.70
2019-02-04T03:56:16.136Z,41.08
2019-02-04T03:58:45.131Z,54.48
2019-02-04T04:01:13.059Z,40.85
2019-02-04T04:03:41.216Z,33.48
2019-02-04T04:06:09.134Z,42.10
2019-02-04T04:08:37.063Z,46.98
2019-02-04T04:11:04.980Z,42.17
2019-02-04T04:13:33.175Z,42.75
2019-02-04T04:16:01.095Z,47.35
2019-02-04T04:18:29.025Z,40.73
2019-02-04T04:20:56.950Z,38.45
2019-02-04T04:23:24.877Z,36.23
2019-02-04T04:25:52.802Z,42.88
2019-02-04T04:28:20.999Z,41.45
2019-02-04T04:30:48.927Z,40.55
2019-02-04T04:33:16.855Z,38.85
2019-02-04T04:35:45.027Z,38.73
2019-02-04T04:38:13.179Z,43.23
2019-02-04T04:40:41.100Z,40.80
2019-02-04T04:43:09.259Z,48.90
2019-02-04T04:45:37.446Z,47.88
2019-02-04T04:48:05.366Z,50.28
2019-02-04T04:50:33.298Z,42.67
2019-02-04T04:53:01.222Z,43.55
2019-02-04T04:55:29.155Z,48.42
2019-02-04T04:57:57.311Z,43.63
2019-02-04T05:00:26.904Z,48.98
2019-02-04T05:02:55.522Z,43.92
2019-02-04T05:05:23.451Z,44.83
2019-02-04T05:07:51.391Z,42.55
2019-02-04T05:10:20.237Z,35.68
2019-02-04T05:12:48.154Z,44.55
2019-02-04T05:15:17.700Z,41.68
2019-02-04T05:17:45.665Z,47.85
2019-02-04T05:20:14.756Z,47.50
2019-02-04T05:22:42.676Z,45.58
2019-02-04T05:25:10.601Z,38.42
2019-02-04T05:27:38.523Z,45.20
2019-02-04T05:30:11.307Z,42.08
2019-02-04T05:32:39.233Z,42.62
2019-02-04T05:35:07.171Z,39.83
2019-02-04T05:37:35.091Z,35.23
2019-02-04T05:40:03.990Z,42.55
2019-02-04T05:42:34.500Z,50.20
2019-02-04T05:45:01.548Z,48.02
2019-02-04T05:47:30.742Z,45.43
2019-02-04T05:49:58.663Z,41.63
2019-02-04T05:52:26.819Z,44.13
2019-02-04T05:54:54.735Z,48.85
2019-02-04T05:57:22.668Z,43.25
2019-02-04T05:59:50.820Z,47.88
2019-02-04T06:02:18.924Z,42.95
2019-02-04T06:04:46.847Z,49.40
2019-02-04T06:07:15.432Z,55.00
2019-02-04T06:09:43.527Z,58.73
2019-02-04T06:12:11.452Z,60.30
2019-02-04T06:14:39.387Z,50.10
2019-02-04T06:17:08.032Z,52.13
2019-02-04T06:19:38.681Z,43.85
2019-02-04T06:22:06.611Z,44.27
2019-02-04T06:24:34.561Z,51.25
2019-02-04T06:27:02.716Z,44.50
2019-02-04T06:29:30.639Z,38.45
2019-02-04T06:31:59.074Z,51.80
2019-02-04T06:34:27.258Z,42.08
2019-02-04T06:36:55.199Z,41.68
2019-02-04T06:39:23.144Z,35.88
2019-02-04T06:41:51.103Z,42.93
2019-02-04T06:44:19.116Z,34.45
2019-02-04T06:46:47.023Z,38.17
2019-02-04T06:49:16.919Z,39.35
2019-02-04T06:51:44.843Z,42.15
2019-02-04T06:54:14.088Z,58.02
2019-02-04T06:56:45.053Z,47.62
2019-02-04T06:59:14.034Z,46.95
2019-02-04T07:01:41.972Z,43.13
2019-02-04T07:04:10.208Z,41.28
2019-02-04T07:06:38.144Z,37.48
2019-02-04T07:09:07.259Z,40.05
2019-02-04T07:11:35.513Z,36.05
2019-02-04T07:14:04.412Z,36.93
2019-02-04T07:16:32.369Z,38.33
2019-02-04T07:19:00.308Z,38.08
2019-02-04T07:21:28.490Z,39.13
2019-02-04T07:23:56.609Z,37.90
2019-02-04T07:26:26.525Z,42.10
2019-02-04T07:28:54.748Z,42.93
2019-02-04T07:31:22.676Z,37.00
2019-02-04T07:33:50.840Z,35.43
2019-02-04T07:36:19.205Z,38.10
2019-02-04T07:38:47.380Z,31.00
2019-02-04T07:41:15.307Z,29.25
2019-02-04T07:43:44.198Z,31.40
2019-02-04T07:46:12.127Z,33.50
2019-02-04T07:48:40.043Z,27.82
2019-02-04T07:51:08.079Z,30.30
2019-02-04T07:53:36.239Z,30.40
2019-02-04T07:56:04.163Z,31.45
2019-02-04T07:58:32.086Z,34.27
2019-02-04T08:01:00.014Z,28.42
2019-02-04T08:03:27.955Z,29.75
2019-02-04T08:05:55.956Z,28.62
2019-02-04T08:08:24.240Z,23.85
2019-02-04T08:10:52.163Z,24.77
2019-02-04T08:13:21.185Z,24.30
2019-02-04T08:15:49.327Z,22.58
2019-02-04T08:18:17.255Z,18.55
2019-02-04T08:20:45.512Z,22.82
2019-02-04T08:23:13.440Z,23.15
2019-02-04T08:25:41.435Z,21.75
2019-02-04T08:28:09.359Z,21.35
2019-02-04T08:30:38.125Z,22.22
2019-02-04T08:33:06.688Z,22.65
2019-02-04T08:35:34.707Z,18.73
2019-02-04T08:38:02.641Z,16.77
2019-02-04T08:40:30.573Z,18.25
2019-02-04T08:42:58.492Z,16.50
2019-02-04T08:45:26.654Z,15.18
2019-02-04T08:47:54.803Z,16.37
2019-02-04T08:50:23.602Z,17.77
2019-02-04T08:52:51.523Z,18.92
2019-02-04T08:55:19.443Z,19.23
2019-02-04T08:57:47.380Z,17.20
2019-02-04T09:00:19.187Z,19.12
2019-02-04T09:02:47.356Z,18.10
2019-02-04T09:05:16.086Z,16.12
2019-02-04T09:07:44.413Z,17.65
2019-02-04T09:10:19.364Z,19.45
2019-02-04T09:12:47.348Z,17.80
2019-02-04T09:15:16.341Z,19.57
2019-02-04T09:17:44.480Z,19.05
2019-02-04T09:20:15.912Z,19.25
2019-02-04T09:22:44.013Z,20.00
2019-02-04T09:25:14.079Z,19.45
2019-02-04T09:27:42.022Z,17.70
2019-02-04T09:30:11.947Z,20.75
2019-02-04T09:32:40.580Z,19.40
2019-02-04T09:35:11.025Z,19.37
2019-02-04T09:37:39.113Z,18.75
2019-02-04T09:40:11.691Z,19.65
2019-02-04T09:42:39.685Z,20.50
2019-02-04T09:45:09.614Z,19.20
2019-02-04T09:47:37.919Z,17.30
2019-02-04T09:50:07.899Z,15.00
2019-02-04T09:52:36.106Z,17.98
2019-02-04T09:55:05.802Z,16.40
2019-02-04T09:57:33.723Z,15.78
2019-02-04T10:00:02.070Z,14.45
2019-02-04T10:02:30.099Z,17.92
2019-02-04T10:04:58.027Z,13.93
2019-02-04T10:07:25.948Z,14.70
2019-02-04T10:09:53.883Z,14.85
2019-02-04T10:12:22.051Z,16.35
2019-02-04T10:14:50.212Z,15.68
2019-02-04T10:17:19.142Z,12.40
2019-02-04T10:19:47.125Z,12.65
2019-02-04T10:22:15.071Z,13.03
2019-02-04T10:24:43.112Z,12.60
2019-02-04T10:27:11.123Z,17.32
2019-02-04T10:29:39.142Z,14.65
2019-02-04T10:32:07.461Z,15.25
2019-02-04T10:34:35.719Z,13.40
2019-02-04T10:37:03.682Z,12.13
2019-02-04T10:39:31.932Z,12.70
2019-02-04T10:42:00.057Z,16.15
2019-02-04T10:44:27.962Z,17.42
2019-02-04T10:46:57.364Z,17.27
2019-02-04T10:49:26.352Z,15.75
2019-02-04T10:51:54.312Z,17.02
2019-02-04T10:54:22.367Z,22.48
2019-02-04T10:56:51.572Z,20.35
2019-02-04T10:59:20.061Z,20.85
2019-02-04T11:01:48.149Z,19.17
2019-02-04T11:04:16.152Z,19.50
2019-02-04T11:06:44.693Z,19.67
2019-02-04T11:09:12.655Z,21.37
2019-02-04T11:11:40.614Z,16.30
2019-02-04T11:14:08.603Z,18.35
2019-02-04T11:16:36.763Z,16.02
2019-02-04T11:19:05.093Z,18.92
2019-02-04T11:21:33.134Z,16.87
2019-02-04T11:24:02.026Z,18.10
2019-02-04T11:26:30.039Z,17.70
2019-02-04T11:28:57.961Z,19.12
2019-02-04T11:31:25.933Z,19.32
2019-02-04T11:33:53.903Z,21.07
2019-02-04T11:36:21.852Z,19.25
2019-02-04T11:38:49.993Z,19.62
2019-02-04T11:41:18.009Z,16.82
2019-02-04T11:43:45.991Z,16.75
2019-02-04T11:46:14.195Z,17.60
2019-02-04T11:48:42.151Z,18.00
2019-02-04T11:51:10.450Z,13.62
2019-02-04T11:53:38.376Z,17.32
2019-02-04T11:56:06.303Z,14.63
2019-02-04T11:58:34.239Z,17.15
2019-02-04T12:01:02.161Z,13.43
2019-02-04T12:03:30.121Z,17.15
2019-02-04T12:05:58.039Z,14.75
2019-02-04T12:08:26.369Z,15.60
2019-02-04T12:10:56.063Z,18.05
2019-02-04T12:13:24.963Z,17.70
2019-02-04T12:15:53.363Z,19.23
2019-02-04T12:18:21.523Z,20.50
2019-02-04T12:20:49.469Z,20.68
2019-02-04T12:23:17.759Z,15.45
2019-02-04T12:25:45.706Z,19.20
2019-02-04T12:28:15.112Z,15.28
2019-02-04T12:30:49.041Z,16.70
2019-02-04T12:33:16.968Z,19.80
2019-02-04T12:35:45.527Z,17.40
2019-02-04T12:38:13.936Z,16.93
2019-02-04T12:40:41.851Z,21.15
2019-02-04T12:43:11.665Z,19.17
2019-02-04T12:45:40.354Z,18.15
2019-02-04T12:48:08.288Z,17.27
2019-02-04T12:50:38.241Z,16.20
2019-02-04T12:53:06.172Z,14.40
2019-02-04T12:55:34.096Z,17.05
2019-02-04T12:58:04.380Z,18.20
2019-02-04T13:00:32.366Z,16.48
2019-02-04T13:03:03.864Z,18.77
2019-02-04T13:05:33.426Z,14.98
2019-02-04T13:08:01.456Z,20.25
2019-02-04T13:10:29.424Z,16.65
2019-02-04T13:13:01.106Z,19.00
2019-02-04T13:15:29.127Z,17.95
2019-02-04T13:17:57.168Z,21.97
2019-02-04T13:20:25.143Z,19.10
2019-02-04T13:22:53.121Z,21.75
2019-02-04T13:25:22.207Z,18.52
2019-02-04T13:27:50.136Z,20.52
2019-02-04T13:30:19.683Z,19.37
2019-02-04T13:32:47.959Z,22.65
2019-02-04T13:35:15.961Z,17.60
2019-02-04T13:37:44.238Z,21.90
2019-02-04T13:40:27.944Z,19.15
2019-02-04T13:42:56.108Z,17.67
2019-02-04T13:45:25.940Z,21.77
2019-02-04T13:47:55.078Z,22.15
2019-02-04T13:50:23.371Z,21.42
2019-02-04T13:52:51.691Z,23.15
2019-02-04T13:55:31.607Z,21.10
2019-02-04T13:57:59.856Z,20.75
2019-02-04T14:00:27.783Z,19.75
2019-02-04T14:02:59.371Z,19.52
2019-02-04T14:05:25.653Z,19.55
2019-02-04T14:07:53.843Z,17.65
2019-02-04T14:10:23.391Z,19.02
2019-02-04T14:12:51.379Z,16.42
2019-02-04T14:15:19.316Z,15.80
2019-02-04T14:17:47.479Z,18.17
2019-02-04T14:20:20.090Z,16.55
2019-02-04T14:22:48.915Z,17.90
2019-02-04T14:25:17.084Z,17.05
2019-02-04T14:27:45.022Z,17.80
2019-02-04T14:30:14.804Z,17.45
2019-02-04T14:32:42.976Z,17.23
2019-02-04T14:35:11.119Z,18.42
2019-02-04T14:37:39.048Z,20.50
2019-02-04T14:40:18.110Z,18.02
2019-02-04T14:42:38.979Z,20.17
2019-02-04T14:45:08.532Z,17.17
2019-02-04T14:47:37.567Z,19.02
2019-02-04T14:50:07.695Z,17.40
2019-02-04T14:52:40.179Z,16.12
2019-02-04T14:55:12.643Z,18.48
2019-02-04T14:57:42.214Z,14.90
2019-02-04T15:00:12.592Z,17.35
2019-02-04T15:02:42.144Z,19.45
2019-02-04T15:05:14.663Z,18.17
2019-02-04T15:07:49.889Z,16.70
2019-02-04T15:10:32.928Z,18.57
2019-02-04T15:13:14.518Z,16.85
2019-02-04T15:15:59.072Z,16.65
2019-02-04T15:18:29.404Z,18.25
2019-02-04T15:21:01.734Z,17.85
2019-02-04T15:23:37.831Z,18.62
2019-02-04T15:26:07.644Z,21.15
2019-02-04T15:28:46.376Z,15.93
2019-02-04T15:31:15.953Z,14.35
2019-02-04T15:33:54.185Z,16.30
2019-02-04T15:36:36.062Z,16.12
2019-02-04T15:39:11.736Z,16.12
2019-02-04T15:41:41.303Z,16.12
2019-02-04T15:44:13.737Z,16.90
2019-02-04T15:46:43.291Z,19.35
2019-02-04T15:49:12.843Z,19.40
2019-02-04T15:51:41.730Z,16.62
2019-02-04T15:54:09.665Z,17.07
2019-02-04T15:56:37.578Z,15.95
2019-02-04T15:59:05.494Z,16.12
2019-02-04T16:01:33.717Z,16.50
2019-02-04T16:04:03.639Z,16.35
2019-02-04T16:06:31.859Z,15.05
2019-02-04T16:08:59.774Z,20.32
2019-02-04T16:11:27.684Z,16.57
2019-02-04T16:13:55.620Z,15.40
2019-02-04T16:16:23.523Z,13.78
2019-02-04T16:18:51.445Z,12.23
2019-02-04T16:21:19.368Z,17.17
2019-02-04T16:23:47.295Z,14.47
2019-02-04T16:26:15.407Z,14.95
2019-02-04T16:28:43.408Z,11.22
2019-02-04T16:31:11.339Z,13.30
2019-02-04T16:33:39.264Z,14.07
2019-02-04T16:36:07.191Z,15.28
2019-02-04T16:38:36.077Z,14.80
2019-02-04T16:41:04.356Z,13.78
2019-02-04T16:43:32.276Z,14.47
2019-02-04T16:46:00.195Z,15.15
2019-02-04T16:48:28.489Z,13.03
2019-02-04T16:51:10.584Z,18.25
2019-02-04T16:53:26.020Z,11.70
2019-02-04T16:55:54.665Z,13.58
2019-02-04T16:58:22.583Z,15.43
2019-02-04T17:00:50.499Z,13.08
2019-02-04T17:03:18.931Z,11.50
2019-02-04T17:05:46.879Z,13.38
2019-02-04T17:08:15.137Z,11.57
2019-02-04T17:10:43.085Z,13.38
2019-02-04T17:13:11.074Z,13.25
2019-02-04T17:15:38.988Z,14.43
2019-02-04T17:18:07.530Z,13.65
2019-02-04T17:20:35.564Z,13.95
2019-02-04T17:23:03.741Z,16.97
2019-02-04T17:25:32.707Z,16.57
2019-02-04T17:28:01.105Z,16.40
2019-02-04T17:30:29.352Z,15.43
2019-02-04T17:32:57.291Z,16.00
2019-02-04T17:35:25.195Z,14.78
2019-02-04T17:37:53.355Z,15.63
2019-02-04T17:40:22.896Z,13.75
2019-02-04T17:42:52.557Z,14.13
2019-02-04T17:45:20.472Z,18.80
2019-02-04T17:47:49.061Z,15.75
2019-02-04T17:50:18.614Z,15.10
2019-02-04T17:52:46.696Z,19.75
2019-02-04T17:55:19.311Z,16.25
2019-02-04T17:57:48.540Z,14.75
2019-02-04T18:00:22.359Z,15.95
2019-02-04T18:02:50.363Z,12.85
2019-02-04T18:05:18.280Z,16.00
2019-02-04T18:07:46.501Z,15.93
2019-02-04T18:10:15.603Z,14.13
2019-02-04T18:12:43.752Z,16.25
2019-02-04T18:15:13.319Z,14.75
2019-02-04T18:17:41.249Z,16.48
2019-02-04T18:20:10.043Z,17.67
2019-02-04T18:22:38.207Z,14.23
2019-02-04T18:25:07.791Z,14.83
2019-02-04T18:27:35.716Z,15.90
2019-02-04T18:30:05.111Z,20.08
2019-02-04T18:32:34.100Z,16.65
2019-02-04T18:35:02.035Z,17.55
2019-02-04T18:37:29.942Z,15.48
2019-02-04T18:39:58.192Z,22.17
2019-02-04T18:42:26.368Z,37.00
2019-02-04T18:44:54.757Z,57.15
2019-02-04T18:47:22.680Z,39.98
2019-02-04T18:49:50.607Z,27.93
2019-02-04T18:52:18.783Z,19.75
2019-02-04T18:54:46.717Z,18.25
2019-02-04T18:57:15.103Z,24.52
2019-02-04T18:59:43.035Z,24.05
2019-02-04T19:02:10.952Z,23.42
2019-02-04T19:04:39.364Z,24.27
2019-02-04T19:07:07.284Z,21.93
2019-02-04T19:09:35.215Z,20.08
2019-02-04T19:12:03.150Z,23.47
2019-02-04T19:14:31.459Z,23.57
2019-02-04T19:16:59.384Z,26.27
2019-02-04T19:19:27.711Z,24.70
2019-02-04T19:21:55.636Z,28.85
2019-02-04T19:24:24.635Z,25.55
2019-02-04T19:26:54.107Z,24.47
2019-02-04T19:29:25.149Z,24.67
2019-02-04T19:31:53.097Z,21.55
2019-02-04T19:34:21.283Z,21.60
2019-02-04T19:36:49.245Z,22.07
2019-02-04T19:39:17.255Z,22.77
2019-02-04T19:41:45.211Z,21.40
2019-02-04T19:44:13.183Z,23.12
2019-02-04T19:46:41.762Z,18.35
2019-02-04T19:49:10.008Z,17.82
2019-02-04T19:51:38.024Z,18.70
2019-02-04T19:54:05.967Z,16.10
2019-02-04T19:56:34.153Z,19.02
2019-02-04T19:59:02.111Z,15.43
2019-02-04T20:01:30.031Z,19.37
2019-02-04T20:03:58.233Z,17.30
2019-02-04T20:06:26.237Z,18.00
2019-02-04T20:08:54.947Z,17.48
2019-02-04T20:11:23.132Z,17.87
2019-02-04T20:13:52.128Z,15.48
2019-02-04T20:16:21.289Z,19.90
2019-02-04T20:18:49.330Z,19.37
2019-02-04T20:21:17.295Z,19.27
2019-02-04T20:23:45.248Z,21.97
2019-02-04T20:26:13.236Z,22.10
2019-02-04T20:28:41.174Z,24.80
2019-02-04T20:31:09.119Z,21.57
2019-02-04T20:33:37.049Z,20.37
2019-02-04T20:36:05.695Z,20.12
2019-02-04T20:38:34.691Z,23.40
2019-02-04T20:41:02.621Z,23.87
2019-02-04T20:43:32.178Z,18.57
2019-02-04T20:46:00.405Z,23.10
2019-02-04T20:48:28.335Z,22.80
2019-02-04T20:50:56.273Z,22.82
2019-02-04T20:53:24.627Z,20.50
2019-02-04T20:55:53.916Z,21.60
2019-02-04T20:58:21.924Z,25.62
2019-02-04T21:00:49.858Z,27.90
2019-02-04T21:03:17.863Z,23.67
2019-02-04T21:05:45.877Z,25.50
2019-02-04T21:08:13.803Z,21.55
2019-02-04T21:10:41.743Z,21.30
2019-02-04T21:13:09.697Z,19.25
2019-02-04T21:15:37.648Z,19.60
2019-02-04T21:18:05.565Z,20.90
2019-02-04T21:20:33.860Z,16.85
2019-02-04T21:23:03.064Z,15.48
2019-02-04T21:25:32.721Z,13.38
2019-02-04T21:28:00.740Z,16.87
2019-02-04T21:30:30.080Z,12.88
2019-02-04T21:32:58.191Z,40.48
2019-02-04T21:35:26.316Z,42.10
2019-02-04T21:37:54.595Z,41.05
2019-02-04T21:40:22.555Z,35.48
2019-02-04T21:42:50.563Z,33.30
2019-02-04T21:45:19.420Z,28.95
2019-02-04T21:47:47.339Z,28.90
2019-02-04T21:50:16.892Z,28.73
2019-02-04T21:52:45.091Z,20.88
2019-02-04T21:55:13.475Z,19.90
2019-02-04T21:57:42.156Z,22.13
2019-02-04T22:00:14.356Z,21.33
2019-02-04T22:02:42.651Z,23.05
2019-02-04T22:05:12.548Z,21.75
2019-02-04T22:07:40.468Z,15.55
2019-02-04T22:10:10.411Z,19.12
2019-02-04T22:12:38.411Z,18.20
2019-02-04T22:15:08.078Z,17.85
2019-02-04T22:17:35.995Z,18.45
2019-02-04T22:20:05.796Z,16.17
2019-02-04T22:22:34.103Z,16.02
2019-02-04T22:25:02.343Z,19.70
2019-02-04T22:27:30.535Z,15.45
2019-02-04T22:29:59.864Z,14.43
2019-02-04T22:32:28.625Z,20.12
2019-02-04T22:34:57.107Z,17.85
2019-02-04T22:37:25.027Z,18.32
2019-02-04T22:39:52.960Z,18.05
2019-02-04T22:42:20.875Z,17.42
2019-02-04T22:44:48.855Z,18.65
2019-02-04T22:47:17.151Z,19.27
2019-02-04T22:49:45.072Z,20.02
2019-02-04T22:52:12.994Z,26.05
2019-02-04T22:54:40.940Z,21.10
2019-02-04T22:57:08.864Z,22.10
2019-02-04T22:59:36.787Z,26.48
2019-02-04T23:02:05.688Z,26.07
2019-02-04T23:04:34.937Z,18.05
2019-02-04T23:07:03.136Z,17.17
2019-02-04T23:09:31.064Z,19.73
2019-02-04T23:11:58.988Z,18.00
2019-02-04T23:14:27.240Z,21.42
2019-02-04T23:16:55.171Z,21.33
2019-02-04T23:19:23.091Z,19.82
2019-02-04T23:21:51.019Z,22.67
2019-02-04T23:24:18.947Z,22.35
2019-02-04T23:26:46.887Z,23.57
2019-02-04T23:29:15.077Z,19.62
2019-02-04T23:31:43.239Z,20.90
2019-02-04T23:34:11.530Z,20.92
2019-02-04T23:36:39.467Z,21.60
2019-02-04T23:39:08.179Z,21.52
2019-02-04T23:41:37.675Z,21.60
2019-02-04T23:44:05.595Z,24.52
2019-02-04T23:46:33.519Z,21.68
2019-02-04T23:49:01.522Z,21.68
2019-02-04T23:51:29.514Z,22.85
2019-02-04T23:53:57.514Z,20.60
2019-02-04T23:56:25.440Z,21.52
2019-02-04T23:58:53.433Z,19.02
